sensor_id;sensor_type;location;lat;lon;timestamp;P1;durP1;ratioP1;P2;durP2;ratioP2
81396;SDS011;70852;49.908;8.126;2023-12-14T00:01:37;7.20;;;3.53;;
81396;SDS011;70852;49.908;8.126;2023-12-14T00:04:06;6.63;;;3.47;;
81396;SDS011;70852;49.908;8.126;2023-12-14T00:06:32;7.97;;;3.70;;
81396;SDS011;70852;49.908;8.126;2023-12-14T00:08:59;7.30;;;3.80;;
81396;SDS011;70852;49.908;8.126;2023-12-14T00:11:26;8.52;;;3.35;;
81396;SDS011;70852;49.908;8.126;2023-12-14T00:13:52;7.97;;;3.50;;
81396;SDS011;70852;49.908;8.126;2023-12-14T00:16:19;6.60;;;3.53;;
81396;SDS011;70852;49.908;8.126;2023-12-14T00:21:16;8.15;;;3.30;;
81396;SDS011;70852;49.908;8.126;2023-12-14T00:23:42;5.15;;;3.00;;
81396;SDS011;70852;49.908;8.126;2023-12-14T00:26:09;6.13;;;3.10;;
81396;SDS011;70852;49.908;8.126;2023-12-14T00:28:34;7.57;;;2.95;;
81396;SDS011;70852;49.908;8.126;2023-12-14T00:31:02;9.13;;;3.42;;
81396;SDS011;70852;49.908;8.126;2023-12-14T00:33:29;7.57;;;3.45;;
81396;SDS011;70852;49.908;8.126;2023-12-14T00:35:55;7.55;;;3.35;;
81396;SDS011;70852;49.908;8.126;2023-12-14T00:38:20;6.65;;;3.38;;
81396;SDS011;70852;49.908;8.126;2023-12-14T00:40:50;6.15;;;2.75;;
81396;SDS011;70852;49.908;8.126;2023-12-14T00:43:16;6.65;;;3.33;;
81396;SDS011;70852;49.908;8.126;2023-12-14T00:45:44;7.18;;;3.17;;
81396;SDS011;70852;49.908;8.126;2023-12-14T00:48:09;5.88;;;3.20;;
81396;SDS011;70852;49.908;8.126;2023-12-14T00:50:34;6.22;;;3.40;;
81396;SDS011;70852;49.908;8.126;2023-12-14T00:52:59;6.10;;;3.08;;
81396;SDS011;70852;49.908;8.126;2023-12-14T00:55:27;8.05;;;3.28;;
81396;SDS011;70852;49.908;8.126;2023-12-14T00:57:54;6.38;;;3.08;;
81396;SDS011;70852;49.908;8.126;2023-12-14T01:00:19;8.55;;;3.55;;
81396;SDS011;70852;49.908;8.126;2023-12-14T01:02:45;8.88;;;3.97;;
81396;SDS011;70852;49.908;8.126;2023-12-14T01:05:13;7.85;;;3.25;;
81396;SDS011;70852;49.908;8.126;2023-12-14T01:07:40;6.78;;;3.33;;
81396;SDS011;70852;49.908;8.126;2023-12-14T01:10:06;8.00;;;3.97;;
81396;SDS011;70852;49.908;8.126;2023-12-14T01:12:32;8.95;;;3.65;;
81396;SDS011;70852;49.908;8.126;2023-12-14T01:14:57;9.57;;;3.63;;
81396;SDS011;70852;49.908;8.126;2023-12-14T01:17:25;9.25;;;3.78;;
81396;SDS011;70852;49.908;8.126;2023-12-14T01:19:53;9.45;;;4.28;;
81396;SDS011;70852;49.908;8.126;2023-12-14T01:22:18;7.50;;;3.33;;
81396;SDS011;70852;49.908;8.126;2023-12-14T01:24:46;9.15;;;3.95;;
81396;SDS011;70852;49.908;8.126;2023-12-14T01:27:12;9.15;;;4.25;;
81396;SDS011;70852;49.908;8.126;2023-12-14T01:29:38;9.57;;;3.75;;
81396;SDS011;70852;49.908;8.126;2023-12-14T01:32:04;8.23;;;4.65;;
81396;SDS011;70852;49.908;8.126;2023-12-14T01:34:32;8.80;;;4.25;;
81396;SDS011;70852;49.908;8.126;2023-12-14T01:36:59;10.30;;;4.40;;
81396;SDS011;70852;49.908;8.126;2023-12-14T01:39:27;9.05;;;3.78;;
81396;SDS011;70852;49.908;8.126;2023-12-14T01:41:52;7.38;;;3.80;;
81396;SDS011;70852;49.908;8.126;2023-12-14T01:44:20;7.28;;;3.40;;
81396;SDS011;70852;49.908;8.126;2023-12-14T01:46:47;6.82;;;2.97;;
81396;SDS011;70852;49.908;8.126;2023-12-14T01:49:13;7.38;;;3.28;;
81396;SDS011;70852;49.908;8.126;2023-12-14T01:51:38;8.85;;;3.17;;
81396;SDS011;70852;49.908;8.126;2023-12-14T01:54:03;7.57;;;3.08;;
81396;SDS011;70852;49.908;8.126;2023-12-14T01:56:29;7.00;;;2.80;;
81396;SDS011;70852;49.908;8.126;2023-12-14T01:58:54;7.47;;;3.05;;
81396;SDS011;70852;49.908;8.126;2023-12-14T02:01:24;5.53;;;2.78;;
81396;SDS011;70852;49.908;8.126;2023-12-14T02:03:54;7.60;;;2.88;;
81396;SDS011;70852;49.908;8.126;2023-12-14T02:06:20;5.95;;;2.95;;
81396;SDS011;70852;49.908;8.126;2023-12-14T02:08:47;5.97;;;3.05;;
81396;SDS011;70852;49.908;8.126;2023-12-14T02:11:12;8.35;;;3.13;;
81396;SDS011;70852;49.908;8.126;2023-12-14T02:13:38;6.90;;;3.15;;
81396;SDS011;70852;49.908;8.126;2023-12-14T02:16:03;9.57;;;3.97;;
81396;SDS011;70852;49.908;8.126;2023-12-14T02:18:29;7.72;;;3.40;;
81396;SDS011;70852;49.908;8.126;2023-12-14T02:20:56;7.18;;;3.17;;
81396;SDS011;70852;49.908;8.126;2023-12-14T02:23:22;6.63;;;3.40;;
81396;SDS011;70852;49.908;8.126;2023-12-14T02:25:47;6.40;;;3.72;;
81396;SDS011;70852;49.908;8.126;2023-12-14T02:28:15;7.28;;;3.30;;
81396;SDS011;70852;49.908;8.126;2023-12-14T02:30:42;9.23;;;3.75;;
81396;SDS011;70852;49.908;8.126;2023-12-14T02:33:10;6.88;;;3.17;;
81396;SDS011;70852;49.908;8.126;2023-12-14T02:35:35;7.25;;;3.33;;
81396;SDS011;70852;49.908;8.126;2023-12-14T02:38:05;5.18;;;2.83;;
81396;SDS011;70852;49.908;8.126;2023-12-14T02:40:30;8.73;;;3.55;;
81396;SDS011;70852;49.908;8.126;2023-12-14T02:42:58;6.22;;;3.08;;
81396;SDS011;70852;49.908;8.126;2023-12-14T02:45:23;8.23;;;3.05;;
81396;SDS011;70852;49.908;8.126;2023-12-14T02:47:48;8.30;;;3.25;;
81396;SDS011;70852;49.908;8.126;2023-12-14T02:50:15;6.78;;;3.20;;
81396;SDS011;70852;49.908;8.126;2023-12-14T02:52:42;5.68;;;2.58;;
81396;SDS011;70852;49.908;8.126;2023-12-14T02:55:10;8.73;;;3.00;;
81396;SDS011;70852;49.908;8.126;2023-12-14T02:57:38;6.30;;;2.60;;
81396;SDS011;70852;49.908;8.126;2023-12-14T03:00:03;5.35;;;2.47;;
81396;SDS011;70852;49.908;8.126;2023-12-14T03:02:29;5.47;;;2.40;;
81396;SDS011;70852;49.908;8.126;2023-12-14T03:04:57;6.32;;;2.63;;
81396;SDS011;70852;49.908;8.126;2023-12-14T03:07:22;4.68;;;2.58;;
81396;SDS011;70852;49.908;8.126;2023-12-14T03:09:47;6.63;;;2.53;;
81396;SDS011;70852;49.908;8.126;2023-12-14T03:12:13;7.35;;;3.38;;
81396;SDS011;70852;49.908;8.126;2023-12-14T03:14:41;6.20;;;2.88;;
81396;SDS011;70852;49.908;8.126;2023-12-14T03:17:06;13.02;;;3.13;;
81396;SDS011;70852;49.908;8.126;2023-12-14T03:19:37;6.95;;;2.92;;
81396;SDS011;70852;49.908;8.126;2023-12-14T03:22:10;5.10;;;2.70;;
81396;SDS011;70852;49.908;8.126;2023-12-14T03:24:38;6.32;;;2.90;;
81396;SDS011;70852;49.908;8.126;2023-12-14T03:27:09;5.03;;;2.78;;
81396;SDS011;70852;49.908;8.126;2023-12-14T03:29:34;6.13;;;2.42;;
81396;SDS011;70852;49.908;8.126;2023-12-14T03:32:00;5.72;;;2.78;;
81396;SDS011;70852;49.908;8.126;2023-12-14T03:34:25;4.80;;;2.53;;
81396;SDS011;70852;49.908;8.126;2023-12-14T03:36:56;4.75;;;2.42;;
81396;SDS011;70852;49.908;8.126;2023-12-14T03:39:24;5.18;;;2.70;;
81396;SDS011;70852;49.908;8.126;2023-12-14T03:41:52;4.88;;;2.80;;
81396;SDS011;70852;49.908;8.126;2023-12-14T03:44:20;6.32;;;2.95;;
81396;SDS011;70852;49.908;8.126;2023-12-14T03:46:45;9.23;;;2.60;;
81396;SDS011;70852;49.908;8.126;2023-12-14T03:49:10;5.93;;;2.58;;
81396;SDS011;70852;49.908;8.126;2023-12-14T03:51:36;5.63;;;2.60;;
81396;SDS011;70852;49.908;8.126;2023-12-14T03:54:03;6.13;;;2.97;;
81396;SDS011;70852;49.908;8.126;2023-12-14T03:56:31;6.35;;;2.90;;
81396;SDS011;70852;49.908;8.126;2023-12-14T03:58:59;9.23;;;3.03;;
81396;SDS011;70852;49.908;8.126;2023-12-14T04:01:24;7.70;;;2.92;;
81396;SDS011;70852;49.908;8.126;2023-12-14T04:03:54;6.45;;;2.63;;
81396;SDS011;70852;49.908;8.126;2023-12-14T04:06:24;6.25;;;2.83;;
81396;SDS011;70852;49.908;8.126;2023-12-14T04:08:52;6.40;;;3.17;;
81396;SDS011;70852;49.908;8.126;2023-12-14T04:11:24;5.75;;;2.95;;
81396;SDS011;70852;49.908;8.126;2023-12-14T04:13:50;5.75;;;3.15;;
81396;SDS011;70852;49.908;8.126;2023-12-14T04:16:21;6.13;;;2.83;;
81396;SDS011;70852;49.908;8.126;2023-12-14T04:18:49;6.28;;;2.92;;
81396;SDS011;70852;49.908;8.126;2023-12-14T04:21:14;6.43;;;2.75;;
81396;SDS011;70852;49.908;8.126;2023-12-14T04:23:40;6.78;;;2.85;;
81396;SDS011;70852;49.908;8.126;2023-12-14T04:26:05;5.43;;;2.90;;
81396;SDS011;70852;49.908;8.126;2023-12-14T04:28:30;7.15;;;3.17;;
81396;SDS011;70852;49.908;8.126;2023-12-14T04:30:56;5.07;;;3.05;;
81396;SDS011;70852;49.908;8.126;2023-12-14T04:33:24;6.43;;;2.80;;
81396;SDS011;70852;49.908;8.126;2023-12-14T04:35:51;6.88;;;2.60;;
81396;SDS011;70852;49.908;8.126;2023-12-14T04:38:38;5.68;;;2.83;;
81396;SDS011;70852;49.908;8.126;2023-12-14T04:41:05;6.78;;;2.65;;
81396;SDS011;70852;49.908;8.126;2023-12-14T04:43:38;7.63;;;3.30;;
81396;SDS011;70852;49.908;8.126;2023-12-14T04:46:06;5.28;;;3.05;;
81396;SDS011;70852;49.908;8.126;2023-12-14T04:48:34;6.93;;;2.63;;
81396;SDS011;70852;49.908;8.126;2023-12-14T04:50:59;6.75;;;2.67;;
81396;SDS011;70852;49.908;8.126;2023-12-14T04:53:24;5.78;;;2.85;;
81396;SDS011;70852;49.908;8.126;2023-12-14T04:55:51;6.20;;;2.85;;
81396;SDS011;70852;49.908;8.126;2023-12-14T04:58:19;5.65;;;2.72;;
81396;SDS011;70852;49.908;8.126;2023-12-14T05:00:44;5.25;;;2.58;;
81396;SDS011;70852;49.908;8.126;2023-12-14T05:03:10;5.28;;;2.90;;
81396;SDS011;70852;49.908;8.126;2023-12-14T05:05:36;5.53;;;2.65;;
81396;SDS011;70852;49.908;8.126;2023-12-14T05:08:01;5.35;;;2.60;;
81396;SDS011;70852;49.908;8.126;2023-12-14T05:10:26;5.88;;;2.85;;
81396;SDS011;70852;49.908;8.126;2023-12-14T05:12:54;6.03;;;2.72;;
81396;SDS011;70852;49.908;8.126;2023-12-14T05:15:21;5.45;;;2.35;;
81396;SDS011;70852;49.908;8.126;2023-12-14T05:17:49;3.97;;;2.13;;
81396;SDS011;70852;49.908;8.126;2023-12-14T05:20:14;6.45;;;2.53;;
81396;SDS011;70852;49.908;8.126;2023-12-14T05:22:44;5.45;;;2.38;;
81396;SDS011;70852;49.908;8.126;2023-12-14T05:25:12;6.15;;;2.83;;
81396;SDS011;70852;49.908;8.126;2023-12-14T05:27:37;8.02;;;3.10;;
81396;SDS011;70852;49.908;8.126;2023-12-14T05:30:02;6.38;;;3.03;;
81396;SDS011;70852;49.908;8.126;2023-12-14T05:32:28;5.45;;;2.85;;
81396;SDS011;70852;49.908;8.126;2023-12-14T05:34:54;7.20;;;3.03;;
81396;SDS011;70852;49.908;8.126;2023-12-14T05:37:19;6.85;;;2.90;;
81396;SDS011;70852;49.908;8.126;2023-12-14T05:39:44;6.03;;;2.60;;
81396;SDS011;70852;49.908;8.126;2023-12-14T05:42:12;4.15;;;2.25;;
81396;SDS011;70852;49.908;8.126;2023-12-14T05:44:41;5.93;;;2.70;;
81396;SDS011;70852;49.908;8.126;2023-12-14T05:47:06;5.43;;;2.60;;
81396;SDS011;70852;49.908;8.126;2023-12-14T05:49:34;7.05;;;2.80;;
81396;SDS011;70852;49.908;8.126;2023-12-14T05:52:05;5.13;;;2.78;;
81396;SDS011;70852;49.908;8.126;2023-12-14T05:54:30;7.90;;;2.70;;
81396;SDS011;70852;49.908;8.126;2023-12-14T05:56:56;5.00;;;2.72;;
81396;SDS011;70852;49.908;8.126;2023-12-14T05:59:21;6.78;;;3.05;;
81396;SDS011;70852;49.908;8.126;2023-12-14T06:01:46;5.25;;;2.53;;
81396;SDS011;70852;49.908;8.126;2023-12-14T06:06:41;6.80;;;2.70;;
81396;SDS011;70852;49.908;8.126;2023-12-14T06:09:07;5.18;;;2.70;;
81396;SDS011;70852;49.908;8.126;2023-12-14T06:11:32;6.32;;;3.00;;
81396;SDS011;70852;49.908;8.126;2023-12-14T06:13:58;4.30;;;2.33;;
81396;SDS011;70852;49.908;8.126;2023-12-14T06:16:24;5.88;;;2.95;;
81396;SDS011;70852;49.908;8.126;2023-12-14T06:18:52;7.25;;;3.17;;
81396;SDS011;70852;49.908;8.126;2023-12-14T06:21:18;9.38;;;3.30;;
81396;SDS011;70852;49.908;8.126;2023-12-14T06:23:43;6.30;;;3.17;;
81396;SDS011;70852;49.908;8.126;2023-12-14T06:26:11;7.05;;;3.20;;
81396;SDS011;70852;49.908;8.126;2023-12-14T06:28:38;10.10;;;4.18;;
81396;SDS011;70852;49.908;8.126;2023-12-14T06:31:03;8.02;;;4.15;;
81396;SDS011;70852;49.908;8.126;2023-12-14T06:33:29;9.25;;;4.03;;
81396;SDS011;70852;49.908;8.126;2023-12-14T06:36:02;8.20;;;4.03;;
81396;SDS011;70852;49.908;8.126;2023-12-14T06:38:29;8.05;;;4.05;;
81396;SDS011;70852;49.908;8.126;2023-12-14T06:40:56;8.30;;;3.75;;
81396;SDS011;70852;49.908;8.126;2023-12-14T06:43:22;8.52;;;3.92;;
81396;SDS011;70852;49.908;8.126;2023-12-14T06:45:49;9.05;;;3.70;;
81396;SDS011;70852;49.908;8.126;2023-12-14T06:48:15;11.02;;;3.50;;
81396;SDS011;70852;49.908;8.126;2023-12-14T06:50:42;6.70;;;3.47;;
81396;SDS011;70852;49.908;8.126;2023-12-14T06:53:09;6.25;;;3.55;;
81396;SDS011;70852;49.908;8.126;2023-12-14T06:55:35;6.78;;;3.72;;
81396;SDS011;70852;49.908;8.126;2023-12-14T06:58:01;6.00;;;3.47;;
81396;SDS011;70852;49.908;8.126;2023-12-14T07:00:29;10.00;;;4.03;;
81396;SDS011;70852;49.908;8.126;2023-12-14T07:02:56;8.05;;;4.10;;
81396;SDS011;70852;49.908;8.126;2023-12-14T07:05:22;7.50;;;3.70;;
81396;SDS011;70852;49.908;8.126;2023-12-14T07:07:49;9.52;;;3.67;;
81396;SDS011;70852;49.908;8.126;2023-12-14T07:10:14;7.20;;;3.22;;
81396;SDS011;70852;49.908;8.126;2023-12-14T07:12:40;8.68;;;4.00;;
81396;SDS011;70852;49.908;8.126;2023-12-14T07:15:05;8.10;;;3.85;;
81396;SDS011;70852;49.908;8.126;2023-12-14T07:17:31;8.95;;;3.92;;
81396;SDS011;70852;49.908;8.126;2023-12-14T07:19:59;8.43;;;3.53;;
81396;SDS011;70852;49.908;8.126;2023-12-14T07:22:24;9.68;;;3.80;;
81396;SDS011;70852;49.908;8.126;2023-12-14T07:24:50;9.30;;;3.90;;
81396;SDS011;70852;49.908;8.126;2023-12-14T07:27:15;8.15;;;3.70;;
81396;SDS011;70852;49.908;8.126;2023-12-14T07:29:40;8.45;;;3.92;;
81396;SDS011;70852;49.908;8.126;2023-12-14T07:32:06;12.82;;;4.93;;
81396;SDS011;70852;49.908;8.126;2023-12-14T07:34:34;11.13;;;4.22;;
81396;SDS011;70852;49.908;8.126;2023-12-14T07:36:59;8.18;;;3.92;;
81396;SDS011;70852;49.908;8.126;2023-12-14T07:39:25;8.32;;;3.55;;
81396;SDS011;70852;49.908;8.126;2023-12-14T07:41:51;8.73;;;4.50;;
81396;SDS011;70852;49.908;8.126;2023-12-14T07:44:16;12.60;;;4.40;;
81396;SDS011;70852;49.908;8.126;2023-12-14T07:46:45;8.68;;;3.90;;
81396;SDS011;70852;49.908;8.126;2023-12-14T07:49:10;8.60;;;4.30;;
81396;SDS011;70852;49.908;8.126;2023-12-14T07:51:35;9.90;;;4.75;;
81396;SDS011;70852;49.908;8.126;2023-12-14T07:54:01;11.13;;;4.32;;
81396;SDS011;70852;49.908;8.126;2023-12-14T07:56:29;9.93;;;4.65;;
81396;SDS011;70852;49.908;8.126;2023-12-14T07:58:54;10.38;;;5.15;;
81396;SDS011;70852;49.908;8.126;2023-12-14T08:01:20;10.00;;;5.30;;
81396;SDS011;70852;49.908;8.126;2023-12-14T08:03:45;10.15;;;4.57;;
81396;SDS011;70852;49.908;8.126;2023-12-14T08:06:11;13.32;;;5.32;;
81396;SDS011;70852;49.908;8.126;2023-12-14T08:08:36;10.82;;;4.85;;
81396;SDS011;70852;49.908;8.126;2023-12-14T08:11:03;9.57;;;4.53;;
81396;SDS011;70852;49.908;8.126;2023-12-14T08:13:31;12.75;;;4.97;;
81396;SDS011;70852;49.908;8.126;2023-12-14T08:15:56;9.75;;;5.32;;
81396;SDS011;70852;49.908;8.126;2023-12-14T08:18:23;11.55;;;5.20;;
81396;SDS011;70852;49.908;8.126;2023-12-14T08:20:51;11.63;;;5.13;;
81396;SDS011;70852;49.908;8.126;2023-12-14T08:23:22;13.70;;;5.43;;
81396;SDS011;70852;49.908;8.126;2023-12-14T08:25:48;12.00;;;5.57;;
81396;SDS011;70852;49.908;8.126;2023-12-14T08:28:13;14.23;;;6.05;;
81396;SDS011;70852;49.908;8.126;2023-12-14T08:30:44;11.65;;;5.63;;
81396;SDS011;70852;49.908;8.126;2023-12-14T08:33:11;13.82;;;6.18;;
81396;SDS011;70852;49.908;8.126;2023-12-14T08:35:37;15.70;;;5.85;;
81396;SDS011;70852;49.908;8.126;2023-12-14T08:38:04;15.35;;;6.55;;
81396;SDS011;70852;49.908;8.126;2023-12-14T08:40:30;15.80;;;7.05;;
81396;SDS011;70852;49.908;8.126;2023-12-14T08:42:55;17.33;;;7.43;;
81396;SDS011;70852;49.908;8.126;2023-12-14T08:45:22;13.25;;;5.72;;
81396;SDS011;70852;49.908;8.126;2023-12-14T08:47:47;14.52;;;5.50;;
81396;SDS011;70852;49.908;8.126;2023-12-14T08:50:12;14.65;;;6.05;;
81396;SDS011;70852;49.908;8.126;2023-12-14T08:52:37;14.65;;;6.45;;
81396;SDS011;70852;49.908;8.126;2023-12-14T08:55:05;12.57;;;5.60;;
81396;SDS011;70852;49.908;8.126;2023-12-14T08:57:32;13.57;;;5.63;;
81396;SDS011;70852;49.908;8.126;2023-12-14T09:00:02;14.63;;;6.63;;
81396;SDS011;70852;49.908;8.126;2023-12-14T09:04:59;15.93;;;6.22;;
81396;SDS011;70852;49.908;8.126;2023-12-14T09:07:25;12.60;;;5.95;;
81396;SDS011;70852;49.908;8.126;2023-12-14T09:09:53;15.65;;;6.28;;
81396;SDS011;70852;49.908;8.126;2023-12-14T09:12:18;11.77;;;5.00;;
81396;SDS011;70852;49.908;8.126;2023-12-14T09:14:47;13.65;;;5.93;;
81396;SDS011;70852;49.908;8.126;2023-12-14T09:17:12;13.77;;;5.20;;
81396;SDS011;70852;49.908;8.126;2023-12-14T09:19:38;9.45;;;4.88;;
81396;SDS011;70852;49.908;8.126;2023-12-14T09:22:05;10.75;;;5.07;;
81396;SDS011;70852;49.908;8.126;2023-12-14T09:24:31;9.15;;;4.38;;
81396;SDS011;70852;49.908;8.126;2023-12-14T09:26:56;9.30;;;3.97;;
81396;SDS011;70852;49.908;8.126;2023-12-14T09:29:21;7.80;;;3.95;;
81396;SDS011;70852;49.908;8.126;2023-12-14T09:31:52;7.90;;;3.28;;
81396;SDS011;70852;49.908;8.126;2023-12-14T09:34:19;7.53;;;3.38;;
81396;SDS011;70852;49.908;8.126;2023-12-14T09:36:47;6.88;;;2.90;;
81396;SDS011;70852;49.908;8.126;2023-12-14T09:39:15;7.72;;;3.40;;
81396;SDS011;70852;49.908;8.126;2023-12-14T09:41:40;6.30;;;3.15;;
81396;SDS011;70852;49.908;8.126;2023-12-14T09:44:06;7.82;;;3.58;;
81396;SDS011;70852;49.908;8.126;2023-12-14T09:46:33;7.90;;;3.60;;
81396;SDS011;70852;49.908;8.126;2023-12-14T09:49:01;7.90;;;3.30;;
81396;SDS011;70852;49.908;8.126;2023-12-14T09:51:30;7.90;;;3.25;;
81396;SDS011;70852;49.908;8.126;2023-12-14T09:53:55;6.90;;;3.60;;
81396;SDS011;70852;49.908;8.126;2023-12-14T09:56:26;8.68;;;3.90;;
81396;SDS011;70852;49.908;8.126;2023-12-14T09:58:52;8.05;;;3.53;;
81396;SDS011;70852;49.908;8.126;2023-12-14T10:01:21;7.18;;;3.63;;
81396;SDS011;70852;49.908;8.126;2023-12-14T10:03:48;8.48;;;3.92;;
81396;SDS011;70852;49.908;8.126;2023-12-14T10:06:14;8.23;;;4.03;;
81396;SDS011;70852;49.908;8.126;2023-12-14T10:08:41;8.40;;;3.85;;
81396;SDS011;70852;49.908;8.126;2023-12-14T10:11:19;9.90;;;4.53;;
81396;SDS011;70852;49.908;8.126;2023-12-14T10:13:44;9.75;;;4.00;;
81396;SDS011;70852;49.908;8.126;2023-12-14T10:16:12;10.55;;;4.18;;
81396;SDS011;70852;49.908;8.126;2023-12-14T10:18:37;11.82;;;4.90;;
81396;SDS011;70852;49.908;8.126;2023-12-14T10:21:05;12.13;;;5.07;;
81396;SDS011;70852;49.908;8.126;2023-12-14T10:23:31;11.43;;;5.03;;
81396;SDS011;70852;49.908;8.126;2023-12-14T10:25:59;12.00;;;5.50;;
81396;SDS011;70852;49.908;8.126;2023-12-14T10:28:28;12.80;;;5.70;;
81396;SDS011;70852;49.908;8.126;2023-12-14T10:30:53;13.88;;;5.75;;
81396;SDS011;70852;49.908;8.126;2023-12-14T10:33:19;11.30;;;5.20;;
81396;SDS011;70852;49.908;8.126;2023-12-14T10:35:45;12.35;;;5.78;;
81396;SDS011;70852;49.908;8.126;2023-12-14T10:38:12;13.90;;;5.97;;
81396;SDS011;70852;49.908;8.126;2023-12-14T10:40:39;13.85;;;6.20;;
81396;SDS011;70852;49.908;8.126;2023-12-14T10:43:08;13.15;;;6.35;;
81396;SDS011;70852;49.908;8.126;2023-12-14T10:45:37;13.48;;;5.68;;
81396;SDS011;70852;49.908;8.126;2023-12-14T10:48:04;12.35;;;5.50;;
81396;SDS011;70852;49.908;8.126;2023-12-14T10:50:30;12.70;;;5.30;;
81396;SDS011;70852;49.908;8.126;2023-12-14T10:52:56;11.75;;;5.25;;
81396;SDS011;70852;49.908;8.126;2023-12-14T10:55:31;10.45;;;5.15;;
81396;SDS011;70852;49.908;8.126;2023-12-14T10:58:02;13.18;;;5.40;;
81396;SDS011;70852;49.908;8.126;2023-12-14T11:00:28;11.52;;;4.70;;
81396;SDS011;70852;49.908;8.126;2023-12-14T11:02:54;8.88;;;4.32;;
81396;SDS011;70852;49.908;8.126;2023-12-14T11:05:21;10.68;;;4.38;;
81396;SDS011;70852;49.908;8.126;2023-12-14T11:07:54;8.07;;;3.70;;
81396;SDS011;70852;49.908;8.126;2023-12-14T11:10:22;10.30;;;4.35;;
81396;SDS011;70852;49.908;8.126;2023-12-14T11:12:51;10.30;;;4.25;;
81396;SDS011;70852;49.908;8.126;2023-12-14T11:15:17;10.63;;;4.55;;
81396;SDS011;70852;49.908;8.126;2023-12-14T11:18:05;9.52;;;3.85;;
81396;SDS011;70852;49.908;8.126;2023-12-14T11:23:13;9.00;;;4.60;;
81396;SDS011;70852;49.908;8.126;2023-12-14T11:25:47;11.18;;;4.40;;
81396;SDS011;70852;49.908;8.126;2023-12-14T11:28:15;9.50;;;4.38;;
81396;SDS011;70852;49.908;8.126;2023-12-14T11:30:42;10.32;;;4.90;;
81396;SDS011;70852;49.908;8.126;2023-12-14T11:33:10;8.20;;;3.33;;
81396;SDS011;70852;49.908;8.126;2023-12-14T11:35:36;9.65;;;3.78;;
81396;SDS011;70852;49.908;8.126;2023-12-14T11:38:04;8.57;;;3.67;;
81396;SDS011;70852;49.908;8.126;2023-12-14T11:40:47;7.55;;;3.72;;
81396;SDS011;70852;49.908;8.126;2023-12-14T11:43:16;6.72;;;3.13;;
81396;SDS011;70852;49.908;8.126;2023-12-14T11:45:45;5.78;;;2.70;;
81396;SDS011;70852;49.908;8.126;2023-12-14T11:48:11;6.65;;;3.13;;
81396;SDS011;70852;49.908;8.126;2023-12-14T11:50:37;10.18;;;4.18;;
81396;SDS011;70852;49.908;8.126;2023-12-14T11:53:04;7.00;;;3.28;;
81396;SDS011;70852;49.908;8.126;2023-12-14T11:55:33;8.63;;;3.63;;
81396;SDS011;70852;49.908;8.126;2023-12-14T11:57:59;9.82;;;3.97;;
81396;SDS011;70852;49.908;8.126;2023-12-14T12:00:28;10.25;;;3.58;;
81396;SDS011;70852;49.908;8.126;2023-12-14T12:05:40;8.65;;;3.20;;
81396;SDS011;70852;49.908;8.126;2023-12-14T12:08:13;6.85;;;2.70;;
81396;SDS011;70852;49.908;8.126;2023-12-14T12:10:40;7.72;;;3.15;;
81396;SDS011;70852;49.908;8.126;2023-12-14T12:13:07;8.73;;;3.38;;
81396;SDS011;70852;49.908;8.126;2023-12-14T12:15:36;7.50;;;3.10;;
81396;SDS011;70852;49.908;8.126;2023-12-14T12:18:03;7.45;;;3.38;;
81396;SDS011;70852;49.908;8.126;2023-12-14T12:20:33;7.65;;;2.95;;
81396;SDS011;70852;49.908;8.126;2023-12-14T12:23:01;6.60;;;3.10;;
81396;SDS011;70852;49.908;8.126;2023-12-14T12:25:26;8.10;;;2.97;;
81396;SDS011;70852;49.908;8.126;2023-12-14T12:27:54;8.43;;;2.92;;
81396;SDS011;70852;49.908;8.126;2023-12-14T12:30:22;6.72;;;2.70;;
81396;SDS011;70852;49.908;8.126;2023-12-14T12:32:53;7.75;;;2.78;;
81396;SDS011;70852;49.908;8.126;2023-12-14T12:35:23;6.22;;;2.58;;
81396;SDS011;70852;49.908;8.126;2023-12-14T12:37:50;6.72;;;2.83;;
81396;SDS011;70852;49.908;8.126;2023-12-14T12:40:19;4.57;;;2.03;;
81396;SDS011;70852;49.908;8.126;2023-12-14T12:42:46;5.40;;;2.03;;
81396;SDS011;70852;49.908;8.126;2023-12-14T12:45:14;3.70;;;1.73;;
81396;SDS011;70852;49.908;8.126;2023-12-14T12:47:47;3.90;;;1.88;;
81396;SDS011;70852;49.908;8.126;2023-12-14T12:50:12;3.95;;;1.67;;
81396;SDS011;70852;49.908;8.126;2023-12-14T12:52:40;4.03;;;1.98;;
81396;SDS011;70852;49.908;8.126;2023-12-14T12:55:10;5.13;;;1.92;;
81396;SDS011;70852;49.908;8.126;2023-12-14T12:57:38;4.00;;;1.85;;
81396;SDS011;70852;49.908;8.126;2023-12-14T13:00:04;4.05;;;1.58;;
81396;SDS011;70852;49.908;8.126;2023-12-14T13:02:36;4.47;;;1.83;;
81396;SDS011;70852;49.908;8.126;2023-12-14T13:05:10;4.20;;;1.90;;
81396;SDS011;70852;49.908;8.126;2023-12-14T13:07:38;5.78;;;2.03;;
81396;SDS011;70852;49.908;8.126;2023-12-14T13:10:06;4.20;;;1.80;;
81396;SDS011;70852;49.908;8.126;2023-12-14T13:12:34;4.93;;;1.85;;
81396;SDS011;70852;49.908;8.126;2023-12-14T13:14:59;4.50;;;1.95;;
81396;SDS011;70852;49.908;8.126;2023-12-14T13:17:25;4.07;;;1.90;;
81396;SDS011;70852;49.908;8.126;2023-12-14T13:19:51;4.28;;;1.88;;
81396;SDS011;70852;49.908;8.126;2023-12-14T13:22:16;4.47;;;2.28;;
81396;SDS011;70852;49.908;8.126;2023-12-14T13:24:42;3.95;;;2.00;;
81396;SDS011;70852;49.908;8.126;2023-12-14T13:27:07;4.40;;;2.10;;
81396;SDS011;70852;49.908;8.126;2023-12-14T13:29:35;5.50;;;2.00;;
81396;SDS011;70852;49.908;8.126;2023-12-14T13:32:03;3.80;;;2.00;;
81396;SDS011;70852;49.908;8.126;2023-12-14T13:34:29;3.70;;;1.55;;
81396;SDS011;70852;49.908;8.126;2023-12-14T13:36:59;3.72;;;1.67;;
81396;SDS011;70852;49.908;8.126;2023-12-14T13:39:28;3.30;;;1.70;;
81396;SDS011;70852;49.908;8.126;2023-12-14T13:41:56;4.32;;;1.90;;
81396;SDS011;70852;49.908;8.126;2023-12-14T13:44:24;2.85;;;1.48;;
81396;SDS011;70852;49.908;8.126;2023-12-14T13:46:49;2.85;;;1.13;;
81396;SDS011;70852;49.908;8.126;2023-12-14T13:49:14;3.30;;;1.50;;
81396;SDS011;70852;49.908;8.126;2023-12-14T13:51:42;2.60;;;1.30;;
81396;SDS011;70852;49.908;8.126;2023-12-14T13:54:10;3.38;;;1.48;;
81396;SDS011;70852;49.908;8.126;2023-12-14T13:56:38;3.00;;;1.45;;
81396;SDS011;70852;49.908;8.126;2023-12-14T13:59:10;2.42;;;1.13;;
81396;SDS011;70852;49.908;8.126;2023-12-14T14:01:35;3.13;;;1.50;;
81396;SDS011;70852;49.908;8.126;2023-12-14T14:04:08;2.65;;;1.17;;
81396;SDS011;70852;49.908;8.126;2023-12-14T14:06:37;3.13;;;1.33;;
81396;SDS011;70852;49.908;8.126;2023-12-14T14:09:02;2.72;;;1.30;;
81396;SDS011;70852;49.908;8.126;2023-12-14T14:11:31;2.28;;;0.85;;
81396;SDS011;70852;49.908;8.126;2023-12-14T14:13:59;2.67;;;1.23;;
81396;SDS011;70852;49.908;8.126;2023-12-14T14:16:26;2.35;;;1.10;;
81396;SDS011;70852;49.908;8.126;2023-12-14T14:18:52;3.03;;;1.30;;
81396;SDS011;70852;49.908;8.126;2023-12-14T14:21:17;2.72;;;1.20;;
81396;SDS011;70852;49.908;8.126;2023-12-14T14:23:48;2.35;;;0.93;;
81396;SDS011;70852;49.908;8.126;2023-12-14T14:26:16;2.70;;;1.10;;
81396;SDS011;70852;49.908;8.126;2023-12-14T14:28:41;2.42;;;1.15;;
81396;SDS011;70852;49.908;8.126;2023-12-14T14:31:06;2.20;;;0.93;;
81396;SDS011;70852;49.908;8.126;2023-12-14T14:33:31;3.55;;;1.00;;
81396;SDS011;70852;49.908;8.126;2023-12-14T14:35:57;2.45;;;1.00;;
81396;SDS011;70852;49.908;8.126;2023-12-14T14:38:32;3.15;;;1.10;;
81396;SDS011;70852;49.908;8.126;2023-12-14T14:40:57;4.40;;;1.13;;
81396;SDS011;70852;49.908;8.126;2023-12-14T14:43:23;4.18;;;1.35;;
81396;SDS011;70852;49.908;8.126;2023-12-14T14:45:49;3.78;;;1.45;;
81396;SDS011;70852;49.908;8.126;2023-12-14T14:48:16;4.75;;;1.63;;
81396;SDS011;70852;49.908;8.126;2023-12-14T14:50:44;3.22;;;1.33;;
81396;SDS011;70852;49.908;8.126;2023-12-14T14:53:09;3.53;;;1.48;;
81396;SDS011;70852;49.908;8.126;2023-12-14T14:55:35;3.35;;;1.20;;
81396;SDS011;70852;49.908;8.126;2023-12-14T14:58:00;2.72;;;1.15;;